Terminal Aerodrome Forecast
Issued by NWS Grand Forks, ND

Home | Current Version | Previous Version | Text Only | Print | Product List | Glossary On
Versions: 1 2 3 4 5 6 7 8 9 10 11 12 13 14 15
000
FTUS43 KFGF 222335
TAFFAR
TAF
KFAR 222335Z 2300/2324 14007KT P6SM FEW060
     FM231000 12006KT P6SM FEW250
     FM231700 13012KT P6SM SCT060
     FM232100 14013KT P6SM SCT050
     FM232300 14012KT P6SM SCT060=

USA.gov is the U.S. government's official web portal to all federal, state and local government web resources and services.